Terminal Aerodrome Forecast
Issued by NWS

Home | Current Version | Previous Version | Text Only | Print | Product List | Glossary On
Versions: 1 2 3 4 5 6 7 8 9 10 11 12 13 14
000
FTUS42 KMLB 211120
TAFFPR
TAF
KFPR 211120Z 2112/2212 29003KT P6SM FEW026 BKN070 OVC110
     FM211400 26005KT P6SM SCT015 BKN100
     FM211700 06008KT P6SM VCSH BKN030 BKN050
     FM220000 07008KT P6SM SCT030 BKN150
     FM220600 00000KT 5SM BR FEW010 BKN120=

USA.gov is the U.S. government's official web portal to all federal, state and local government web resources and services.